Terminal Aerodrome Forecast
Issued by NWS

Home | Current Version | Previous Version | Text Only | Print | Product List | Glossary On
Versions: 1 2 3 4 5 6 7 8 9 10 11 12 13 14 15
000
FTUS45 KVEF 250520
TAFDAG
TAF
KDAG 250520Z 2506/2606 24025G35KT P6SM FEW120 BKN200
     FM250800 24025G35KT P6SM FEW200
     FM251700 24030G40KT P6SM FEW120
     FM252000 25038G48KT P6SM FEW120=

USA.gov is the U.S. government's official web portal to all federal, state and local government web resources and services.